createdAt,value
2019-01-30T00:00:43.329Z,33.38
2019-01-30T00:03:12.266Z,34.48
2019-01-30T00:05:41.112Z,33.85
2019-01-30T00:08:10.034Z,36.30
2019-01-30T00:10:38.916Z,35.08
2019-01-30T00:13:07.875Z,35.30
2019-01-30T00:15:36.851Z,37.95
2019-01-30T00:18:06.346Z,35.50
2019-01-30T00:20:35.215Z,34.20
2019-01-30T00:23:04.154Z,34.78
2019-01-30T00:25:33.091Z,35.63
2019-01-30T00:28:02.079Z,36.57
2019-01-30T00:30:31.271Z,40.45
2019-01-30T00:33:00.383Z,35.03
2019-01-30T00:35:29.267Z,35.85
2019-01-30T00:37:58.569Z,38.10
2019-01-30T00:40:27.682Z,35.75
2019-01-30T00:42:56.542Z,36.13
2019-01-30T00:45:25.519Z,38.67
2019-01-30T00:47:54.435Z,40.90
2019-01-30T00:50:23.399Z,40.83
2019-01-30T00:52:55.355Z,38.47
2019-01-30T00:55:24.258Z,40.38
2019-01-30T00:57:53.244Z,43.45
2019-01-30T01:00:23.243Z,45.20
2019-01-30T01:02:52.196Z,45.50
2019-01-30T01:05:21.297Z,46.70
2019-01-30T01:07:50.648Z,41.75
2019-01-30T01:10:20.000Z,43.48
2019-01-30T01:12:49.073Z,40.50
2019-01-30T01:15:18.044Z,41.70
2019-01-30T01:17:47.022Z,42.73
2019-01-30T01:20:16.058Z,44.27
2019-01-30T01:22:44.950Z,43.55
2019-01-30T01:25:15.848Z,48.80
2019-01-30T01:27:45.187Z,45.88
2019-01-30T01:30:24.825Z,47.93
2019-01-30T01:32:47.756Z,45.17
2019-01-30T01:35:16.672Z,48.25
2019-01-30T01:37:45.766Z,48.00
2019-01-30T01:40:15.284Z,49.48
2019-01-30T01:42:44.247Z,47.43
2019-01-30T01:45:18.549Z,48.05
2019-01-30T01:47:47.473Z,48.38
2019-01-30T01:50:19.562Z,47.58
2019-01-30T01:52:48.552Z,54.08
2019-01-30T01:55:17.511Z,50.90
2019-01-30T01:57:46.378Z,50.28
2019-01-30T02:00:20.488Z,50.50
2019-01-30T02:02:49.400Z,49.83
2019-01-30T02:05:20.126Z,55.97
2019-01-30T02:07:49.126Z,50.90
2019-01-30T02:10:27.080Z,52.10
2019-01-30T02:12:56.145Z,53.85
2019-01-30T02:15:25.207Z,56.50
2019-01-30T02:17:54.527Z,53.78
2019-01-30T02:20:26.231Z,50.55
2019-01-30T02:22:55.241Z,56.63
2019-01-30T02:25:24.263Z,57.50
2019-01-30T02:27:53.883Z,51.27
2019-01-30T02:30:25.549Z,53.48
2019-01-30T02:32:55.190Z,54.23
2019-01-30T02:35:25.436Z,55.52
2019-01-30T02:37:54.684Z,56.98
2019-01-30T02:40:26.214Z,54.75
2019-01-30T02:42:55.524Z,51.80
2019-01-30T02:45:25.929Z,54.67
2019-01-30T02:47:55.221Z,51.92
2019-01-30T02:50:24.256Z,51.90
2019-01-30T02:52:53.368Z,51.60
2019-01-30T02:55:22.886Z,50.65
2019-01-30T02:57:51.968Z,51.75
2019-01-30T03:00:24.362Z,52.08
2019-01-30T03:02:53.351Z,55.33
2019-01-30T03:05:22.411Z,49.30
2019-01-30T03:07:51.416Z,53.68
2019-01-30T03:10:20.441Z,50.43
2019-01-30T03:12:49.470Z,49.70
2019-01-30T03:15:18.655Z,50.85
2019-01-30T03:17:47.779Z,49.85
2019-01-30T03:20:24.817Z,50.55
2019-01-30T03:22:53.858Z,52.43
2019-01-30T03:25:23.861Z,52.85
2019-01-30T03:27:52.910Z,55.05
2019-01-30T03:30:26.984Z,55.38
2019-01-30T03:32:56.011Z,51.50
2019-01-30T03:35:25.090Z,52.00
2019-01-30T03:37:54.008Z,54.13
2019-01-30T03:40:23.544Z,52.00
2019-01-30T03:42:52.559Z,48.60
2019-01-30T03:45:22.476Z,49.20
2019-01-30T03:47:51.632Z,50.85
2019-01-30T03:50:20.660Z,56.50
2019-01-30T03:52:49.702Z,59.20
2019-01-30T03:55:18.828Z,61.35
2019-01-30T03:57:48.042Z,56.68
2019-01-30T04:00:19.655Z,53.95
2019-01-30T04:02:48.720Z,55.10
2019-01-30T04:05:17.737Z,55.95
2019-01-30T04:07:46.801Z,59.30
2019-01-30T04:10:18.323Z,55.47
2019-01-30T04:12:47.315Z,56.73
2019-01-30T04:15:16.438Z,53.58
2019-01-30T04:17:45.853Z,54.80
2019-01-30T04:20:16.687Z,54.48
2019-01-30T04:22:45.696Z,55.23
2019-01-30T04:25:14.805Z,57.63
2019-01-30T04:27:44.140Z,59.65
2019-01-30T04:30:16.144Z,58.63
2019-01-30T04:32:45.161Z,56.50
2019-01-30T04:35:14.202Z,50.78
2019-01-30T04:37:43.233Z,53.05
2019-01-30T04:40:14.849Z,48.68
2019-01-30T04:42:44.412Z,54.70
2019-01-30T04:45:16.319Z,55.45
2019-01-30T04:47:45.404Z,55.30
2019-01-30T04:50:14.568Z,53.83
2019-01-30T04:52:43.649Z,56.33
2019-01-30T04:55:12.760Z,50.60
2019-01-30T04:57:41.947Z,52.40
2019-01-30T05:00:13.166Z,53.13
2019-01-30T05:02:42.255Z,51.48
2019-01-30T05:05:11.621Z,48.93
2019-01-30T05:07:40.609Z,52.27
2019-01-30T05:10:10.816Z,52.55
2019-01-30T05:12:39.869Z,51.00
2019-01-30T05:15:12.057Z,51.60
2019-01-30T05:17:41.045Z,48.08
2019-01-30T05:20:11.456Z,46.33
2019-01-30T05:22:40.464Z,48.68
2019-01-30T05:25:09.676Z,49.85
2019-01-30T05:27:38.785Z,46.05
2019-01-30T05:30:12.197Z,47.45
2019-01-30T05:32:41.320Z,51.65
2019-01-30T05:35:13.133Z,54.30
2019-01-30T05:37:42.117Z,50.40
2019-01-30T05:40:13.425Z,48.08
2019-01-30T05:42:42.450Z,49.98
2019-01-30T05:45:14.331Z,50.85
2019-01-30T05:47:45.598Z,53.28
2019-01-30T05:50:14.811Z,51.15
2019-01-30T05:52:43.939Z,51.15
2019-01-30T05:55:13.584Z,51.42
2019-01-30T05:57:42.614Z,46.73
2019-01-30T06:00:34.140Z,46.33
2019-01-30T06:03:03.538Z,45.05
2019-01-30T06:05:32.546Z,46.00
2019-01-30T06:08:01.620Z,46.92
2019-01-30T06:10:30.698Z,43.80
2019-01-30T06:12:59.589Z,43.52
2019-01-30T06:15:28.653Z,43.17
2019-01-30T06:17:57.734Z,42.43
2019-01-30T06:20:27.660Z,42.23
2019-01-30T06:22:57.057Z,40.80
2019-01-30T06:25:26.086Z,40.38
2019-01-30T06:27:55.173Z,41.23
2019-01-30T06:30:24.335Z,40.50
2019-01-30T06:32:53.456Z,41.33
2019-01-30T06:35:22.481Z,39.35
2019-01-30T06:37:51.697Z,38.58
2019-01-30T06:40:29.472Z,41.05
2019-01-30T06:42:58.676Z,39.42
2019-01-30T06:45:27.766Z,37.93
2019-01-30T06:47:56.768Z,39.30
2019-01-30T06:50:25.866Z,36.38
2019-01-30T06:52:55.006Z,35.85
2019-01-30T06:55:24.025Z,37.70
2019-01-30T06:57:53.096Z,35.73
2019-01-30T07:00:25.021Z,37.03
2019-01-30T07:02:54.605Z,39.18
2019-01-30T07:05:23.642Z,37.78
2019-01-30T07:07:52.649Z,37.50
2019-01-30T07:10:24.053Z,36.65
2019-01-30T07:12:53.152Z,37.45
2019-01-30T07:15:22.289Z,36.95
2019-01-30T07:17:51.633Z,34.92
2019-01-30T07:20:20.765Z,34.58
2019-01-30T07:22:52.361Z,34.05
2019-01-30T07:25:22.028Z,33.88
2019-01-30T07:27:51.132Z,34.38
2019-01-30T07:30:31.480Z,34.50
2019-01-30T07:33:00.532Z,33.23
2019-01-30T07:35:29.558Z,33.00
2019-01-30T07:37:58.934Z,32.65
2019-01-30T07:40:28.154Z,31.52
2019-01-30T07:42:57.156Z,33.50
2019-01-30T07:45:27.943Z,33.85
2019-01-30T07:47:56.952Z,32.53
2019-01-30T07:50:25.963Z,33.38
2019-01-30T07:52:54.943Z,34.35
2019-01-30T07:55:23.971Z,34.45
2019-01-30T07:57:52.966Z,31.85
2019-01-30T08:00:24.248Z,34.10
2019-01-30T08:02:53.847Z,31.37
2019-01-30T08:05:23.336Z,34.00
2019-01-30T08:07:52.422Z,32.75
2019-01-30T08:10:21.427Z,30.97
2019-01-30T08:12:50.432Z,31.52
2019-01-30T08:15:19.636Z,31.05
2019-01-30T08:17:50.544Z,32.33
2019-01-30T08:20:20.814Z,30.08
2019-01-30T08:22:50.470Z,30.88
2019-01-30T08:25:21.858Z,30.63
2019-01-30T08:27:54.282Z,30.23
2019-01-30T08:30:30.061Z,29.00
2019-01-30T08:33:04.605Z,29.63
2019-01-30T08:35:33.039Z,29.00
2019-01-30T08:38:02.142Z,28.52
2019-01-30T08:40:31.685Z,29.67
2019-01-30T08:43:00.721Z,26.60
2019-01-30T08:45:31.325Z,27.67
2019-01-30T08:48:00.837Z,28.40
2019-01-30T08:50:30.006Z,26.50
2019-01-30T08:52:59.013Z,26.48
2019-01-30T08:55:28.020Z,27.63
2019-01-30T08:57:57.116Z,28.37
2019-01-30T09:00:27.050Z,27.70
2019-01-30T09:02:56.402Z,24.63
2019-01-30T09:05:25.869Z,24.92
2019-01-30T09:07:55.192Z,26.80
2019-01-30T09:10:25.282Z,25.43
2019-01-30T09:12:54.322Z,25.70
2019-01-30T09:15:24.772Z,26.50
2019-01-30T09:17:53.826Z,26.70
2019-01-30T09:20:23.817Z,25.32
2019-01-30T09:22:53.086Z,24.30
2019-01-30T09:25:24.222Z,25.60
2019-01-30T09:27:53.295Z,24.27
2019-01-30T09:30:30.712Z,24.85
2019-01-30T09:32:59.843Z,25.57
2019-01-30T09:35:29.253Z,24.45
2019-01-30T09:37:58.260Z,24.60
2019-01-30T09:40:27.316Z,23.70
2019-01-30T09:42:56.393Z,23.67
2019-01-30T09:45:25.750Z,23.25
2019-01-30T09:47:54.948Z,25.55
2019-01-30T09:50:24.206Z,27.70
2019-01-30T09:52:53.469Z,23.95
2019-01-30T09:55:22.741Z,25.65
2019-01-30T09:57:52.108Z,23.70
2019-01-30T10:00:28.268Z,24.80
2019-01-30T10:02:57.265Z,22.95
2019-01-30T10:05:26.328Z,24.12
2019-01-30T10:07:55.527Z,23.73
2019-01-30T10:10:27.289Z,25.13
2019-01-30T10:12:56.308Z,23.15
2019-01-30T10:15:27.953Z,21.57
2019-01-30T10:17:56.885Z,25.05
2019-01-30T10:20:26.737Z,24.25
2019-01-30T10:22:55.814Z,24.92
2019-01-30T10:25:24.941Z,24.32
2019-01-30T10:27:53.973Z,23.87
2019-01-30T10:30:31.853Z,23.25
2019-01-30T10:33:00.882Z,25.77
2019-01-30T10:35:30.098Z,25.50
2019-01-30T10:37:59.172Z,24.45
2019-01-30T10:40:28.177Z,25.97
2019-01-30T10:42:57.599Z,23.18
2019-01-30T10:45:26.747Z,25.50
2019-01-30T10:47:55.801Z,23.70
2019-01-30T10:50:26.445Z,24.77
2019-01-30T10:52:55.469Z,25.53
2019-01-30T10:55:26.255Z,24.10
2019-01-30T10:57:57.300Z,23.07
2019-01-30T11:00:29.271Z,23.83
2019-01-30T11:02:58.302Z,24.70
2019-01-30T11:05:27.317Z,24.12
2019-01-30T11:07:56.376Z,24.47
2019-01-30T11:10:25.498Z,23.57
2019-01-30T11:12:54.434Z,24.53
2019-01-30T11:15:25.074Z,24.10
2019-01-30T11:17:54.097Z,22.98
2019-01-30T11:20:23.092Z,24.82
2019-01-30T11:22:53.687Z,24.67
2019-01-30T11:25:25.849Z,23.52
2019-01-30T11:27:55.257Z,26.42
2019-01-30T11:30:24.297Z,25.15
2019-01-30T11:32:55.403Z,24.32
2019-01-30T11:35:24.013Z,23.22
2019-01-30T11:37:53.253Z,23.40
2019-01-30T11:40:22.640Z,25.62
2019-01-30T11:42:51.659Z,24.87
2019-01-30T11:45:23.862Z,25.00
2019-01-30T11:47:52.888Z,23.85
2019-01-30T11:50:21.931Z,23.65
2019-01-30T11:52:50.968Z,23.60
2019-01-30T11:55:20.000Z,24.23
2019-01-30T11:57:49.062Z,23.22
2019-01-30T12:00:33.447Z,26.42
2019-01-30T12:03:02.470Z,25.60
2019-01-30T12:05:31.480Z,23.80
2019-01-30T12:08:00.926Z,25.03
2019-01-30T12:10:29.930Z,22.93
2019-01-30T12:12:58.934Z,22.70
2019-01-30T12:15:27.992Z,22.25
2019-01-30T12:17:57.033Z,24.45
2019-01-30T12:20:26.080Z,22.73
2019-01-30T12:22:55.121Z,26.37
2019-01-30T12:25:24.532Z,21.50
2019-01-30T12:27:53.546Z,24.50
2019-01-30T12:30:24.222Z,20.68
2019-01-30T12:32:53.247Z,20.00
2019-01-30T12:35:22.836Z,19.85
2019-01-30T12:37:51.869Z,20.92
2019-01-30T12:40:21.369Z,20.27
2019-01-30T12:42:50.814Z,20.67
2019-01-30T12:45:22.712Z,20.60
2019-01-30T12:47:51.722Z,18.87
2019-01-30T12:50:20.762Z,18.92
2019-01-30T12:52:49.849Z,19.65
2019-01-30T12:55:19.394Z,21.12
2019-01-30T12:57:48.440Z,19.00
2019-01-30T13:00:19.520Z,18.57
2019-01-30T13:02:48.847Z,17.87
2019-01-30T13:05:18.897Z,19.37
2019-01-30T13:07:47.949Z,17.70
2019-01-30T13:10:16.956Z,20.62
2019-01-30T13:12:45.954Z,18.67
2019-01-30T13:15:16.867Z,19.92
2019-01-30T13:17:46.758Z,18.42
2019-01-30T13:20:17.877Z,18.48
2019-01-30T13:22:46.941Z,18.53
2019-01-30T13:25:18.723Z,18.02
2019-01-30T13:27:47.669Z,17.65
2019-01-30T13:30:22.297Z,18.12
2019-01-30T13:32:51.453Z,18.20
2019-01-30T13:35:23.788Z,17.73
2019-01-30T13:37:52.813Z,20.45
2019-01-30T13:40:24.977Z,20.92
2019-01-30T13:42:53.949Z,20.15
2019-01-30T13:45:23.022Z,22.50
2019-01-30T13:47:52.093Z,23.10
2019-01-30T13:50:23.044Z,21.93
2019-01-30T13:52:52.103Z,21.27
2019-01-30T13:55:21.113Z,22.30
2019-01-30T13:57:50.543Z,20.77
2019-01-30T14:00:23.298Z,22.02
2019-01-30T14:02:52.324Z,22.32
2019-01-30T14:05:21.333Z,21.77
2019-01-30T14:07:51.166Z,23.47
2019-01-30T14:10:20.289Z,21.35
2019-01-30T14:12:49.703Z,20.97
2019-01-30T14:15:20.728Z,24.15
2019-01-30T14:17:49.769Z,21.20
2019-01-30T14:20:18.843Z,20.60
2019-01-30T14:22:49.526Z,22.32
2019-01-30T14:25:19.306Z,24.77
2019-01-30T14:27:48.384Z,25.57
2019-01-30T14:30:22.969Z,23.30
2019-01-30T14:32:52.045Z,24.57
2019-01-30T14:35:21.810Z,22.42
2019-01-30T14:37:50.842Z,22.27
2019-01-30T14:40:20.680Z,23.62
2019-01-30T14:42:49.953Z,25.85
2019-01-30T14:45:19.047Z,21.97
2019-01-30T14:47:49.092Z,25.88
2019-01-30T14:50:20.082Z,24.15
2019-01-30T14:52:49.195Z,23.67
2019-01-30T14:55:19.054Z,18.57
2019-01-30T14:57:48.740Z,25.23
2019-01-30T15:00:19.777Z,17.07
2019-01-30T15:02:48.838Z,13.80
2019-01-30T15:05:22.250Z,12.53
2019-01-30T15:07:48.967Z,12.70
2019-01-30T15:10:19.132Z,9.08
2019-01-30T15:12:48.198Z,10.35
2019-01-30T15:15:19.049Z,9.68
2019-01-30T15:17:47.968Z,5.87
2019-01-30T15:20:21.822Z,4.77
2019-01-30T15:22:50.892Z,6.87
2019-01-30T15:25:20.952Z,6.30
2019-01-30T15:27:50.311Z,8.35
2019-01-30T15:30:30.907Z,5.58
2019-01-30T15:32:59.961Z,3.80
2019-01-30T15:35:33.555Z,8.05
2019-01-30T15:38:00.680Z,4.92
2019-01-30T15:40:29.848Z,4.00
2019-01-30T15:42:58.840Z,6.80
2019-01-30T15:45:28.036Z,5.42
2019-01-30T15:47:57.043Z,5.28
2019-01-30T15:50:27.887Z,4.37
2019-01-30T15:52:58.295Z,5.75
2019-01-30T15:55:27.483Z,4.17
2019-01-30T15:58:02.133Z,5.03
2019-01-30T16:00:34.124Z,3.58
2019-01-30T16:03:03.104Z,7.85
2019-01-30T16:05:32.097Z,4.60
2019-01-30T16:08:01.035Z,4.37
2019-01-30T16:10:30.040Z,4.67
2019-01-30T16:12:58.880Z,4.45
2019-01-30T16:15:30.944Z,6.10
2019-01-30T16:17:59.839Z,4.75
2019-01-30T16:20:28.833Z,5.60
2019-01-30T16:22:57.873Z,3.40
2019-01-30T16:25:26.887Z,3.52
2019-01-30T16:27:55.869Z,3.90
2019-01-30T16:30:25.455Z,4.00
2019-01-30T16:32:54.476Z,6.53
2019-01-30T16:35:25.849Z,4.08
2019-01-30T16:37:54.980Z,5.05
2019-01-30T16:40:24.016Z,7.17
2019-01-30T16:42:54.430Z,5.33
2019-01-30T16:45:25.428Z,6.00
2019-01-30T16:47:54.476Z,6.45
2019-01-30T16:50:23.468Z,7.40
2019-01-30T16:52:52.817Z,6.72
2019-01-30T16:55:22.632Z,7.25
2019-01-30T16:57:51.628Z,9.00
2019-01-30T17:00:26.021Z,10.70
2019-01-30T17:02:55.115Z,9.25
2019-01-30T17:05:24.305Z,10.93
2019-01-30T17:07:53.308Z,7.92
2019-01-30T17:10:22.311Z,7.67
2019-01-30T17:12:51.305Z,10.23
2019-01-30T17:15:22.719Z,7.33
2019-01-30T17:17:51.716Z,6.73
2019-01-30T17:20:22.827Z,6.90
2019-01-30T17:22:51.876Z,8.73
2019-01-30T17:25:21.191Z,7.80
2019-01-30T17:27:50.208Z,8.65
2019-01-30T17:30:24.967Z,7.20
2019-01-30T17:32:53.967Z,10.40
2019-01-30T17:35:23.136Z,5.50
2019-01-30T17:37:52.188Z,5.90
2019-01-30T17:40:21.620Z,4.95
2019-01-30T17:42:50.619Z,5.50
2019-01-30T17:45:19.652Z,4.80
2019-01-30T17:47:48.652Z,5.65
2019-01-30T17:50:20.585Z,4.42
2019-01-30T17:52:49.607Z,6.05
2019-01-30T17:55:18.549Z,6.22
2019-01-30T17:57:47.571Z,7.15
2019-01-30T18:00:28.756Z,8.20
2019-01-30T18:02:57.760Z,6.80
2019-01-30T18:05:26.756Z,5.55
2019-01-30T18:07:55.764Z,4.60
2019-01-30T18:10:24.782Z,7.12
2019-01-30T18:12:53.794Z,4.87
2019-01-30T18:15:22.794Z,4.60
2019-01-30T18:17:54.256Z,6.72
2019-01-30T18:20:22.496Z,5.83
2019-01-30T18:22:51.439Z,6.80
2019-01-30T18:25:20.468Z,5.13
2019-01-30T18:27:49.578Z,6.22
2019-01-30T18:30:18.700Z,5.92
2019-01-30T18:32:47.818Z,4.60
2019-01-30T18:35:16.960Z,5.95
2019-01-30T18:37:46.193Z,5.95
2019-01-30T18:40:17.462Z,7.00
2019-01-30T18:42:46.530Z,5.05
2019-01-30T18:45:21.064Z,6.15
2019-01-30T18:47:50.060Z,6.15
2019-01-30T18:50:21.123Z,8.17
2019-01-30T18:52:50.125Z,8.40
2019-01-30T18:55:19.215Z,7.97
2019-01-30T18:57:48.820Z,8.65
2019-01-30T19:00:30.165Z,6.78
2019-01-30T19:03:00.619Z,4.60
2019-01-30T19:05:30.731Z,7.30
2019-01-30T19:07:59.775Z,8.43
2019-01-30T19:10:28.796Z,6.37
2019-01-30T19:12:57.952Z,7.70
2019-01-30T19:15:27.036Z,5.33
2019-01-30T19:17:56.153Z,7.70
2019-01-30T19:20:28.061Z,6.70
2019-01-30T19:22:56.965Z,3.33
2019-01-30T19:25:25.911Z,9.05
2019-01-30T19:27:56.135Z,5.05
2019-01-30T19:30:27.432Z,6.85
2019-01-30T19:32:56.425Z,5.10
2019-01-30T19:35:25.465Z,4.72
2019-01-30T19:37:54.844Z,5.72
2019-01-30T19:40:24.040Z,9.83
2019-01-30T19:42:53.128Z,6.63
2019-01-30T19:45:23.841Z,6.60
2019-01-30T19:47:52.851Z,4.92
2019-01-30T19:50:23.719Z,6.70
2019-01-30T19:52:53.051Z,6.73
2019-01-30T19:55:22.027Z,8.20
2019-01-30T19:57:51.167Z,5.10
2019-01-30T20:00:28.723Z,5.75
2019-01-30T20:02:57.727Z,5.67
2019-01-30T20:05:27.036Z,7.92
2019-01-30T20:07:56.019Z,4.55
2019-01-30T20:10:30.671Z,5.20
2019-01-30T20:12:59.674Z,5.80
2019-01-30T20:15:28.869Z,7.08
2019-01-30T20:17:57.908Z,6.00
2019-01-30T20:20:26.920Z,6.58
2019-01-30T20:22:55.926Z,6.40
2019-01-30T20:25:27.579Z,7.12
2019-01-30T20:27:56.525Z,5.62
2019-01-30T20:30:27.216Z,5.55
2019-01-30T20:32:56.356Z,5.80
2019-01-30T20:35:25.369Z,7.47
2019-01-30T20:37:54.370Z,5.15
2019-01-30T20:40:25.521Z,6.47
2019-01-30T20:42:55.910Z,5.25
2019-01-30T20:45:33.527Z,8.13
2019-01-30T20:47:56.084Z,5.10
2019-01-30T20:50:27.155Z,4.80
2019-01-30T20:52:56.307Z,4.60
2019-01-30T20:55:27.648Z,7.28
2019-01-30T20:57:56.552Z,6.10
2019-01-30T21:00:35.181Z,6.08
2019-01-30T21:03:04.782Z,6.30
2019-01-30T21:05:33.818Z,6.50
2019-01-30T21:08:03.231Z,7.25
2019-01-30T21:10:34.605Z,7.53
2019-01-30T21:13:03.823Z,9.20
2019-01-30T21:15:32.786Z,4.78
2019-01-30T21:18:01.789Z,7.83
2019-01-30T21:20:30.763Z,6.27
2019-01-30T21:22:59.756Z,5.22
2019-01-30T21:25:28.828Z,6.65
2019-01-30T21:27:57.747Z,7.60
2019-01-30T21:30:29.056Z,5.72
2019-01-30T21:32:58.043Z,7.53
2019-01-30T21:35:27.048Z,9.03
2019-01-30T21:37:56.053Z,7.33
2019-01-30T21:40:25.035Z,7.67
2019-01-30T21:42:54.037Z,7.67
2019-01-30T21:45:23.925Z,5.83
2019-01-30T21:47:52.859Z,7.67
2019-01-30T21:50:21.904Z,6.87
2019-01-30T21:52:50.991Z,7.70
2019-01-30T21:55:22.448Z,5.35
2019-01-30T21:57:51.568Z,7.40
2019-01-30T22:00:25.168Z,7.40
2019-01-30T22:02:54.199Z,7.45
2019-01-30T22:05:23.288Z,10.97
2019-01-30T22:08:00.600Z,6.70
2019-01-30T22:10:25.138Z,9.05
2019-01-30T22:12:54.384Z,7.70
2019-01-30T22:15:23.506Z,7.35
2019-01-30T22:17:52.520Z,7.87
2019-01-30T22:20:23.539Z,7.85
2019-01-30T22:22:52.660Z,8.60
2019-01-30T22:25:21.975Z,8.03
2019-01-30T22:27:51.030Z,9.73
2019-01-30T22:30:31.481Z,7.08
2019-01-30T22:33:00.508Z,9.05
2019-01-30T22:35:29.557Z,7.83
2019-01-30T22:37:58.568Z,6.97
2019-01-30T22:40:27.589Z,8.75
2019-01-30T22:42:56.681Z,9.33
2019-01-30T22:45:25.684Z,10.00
2019-01-30T22:47:54.672Z,7.55
2019-01-30T22:50:23.786Z,7.33
2019-01-30T22:52:52.751Z,8.60
2019-01-30T22:55:22.817Z,9.00
2019-01-30T22:57:52.083Z,7.97
2019-01-30T23:00:30.837Z,6.97
2019-01-30T23:03:00.018Z,7.92
2019-01-30T23:06:06.176Z,10.03
2019-01-30T23:08:45.868Z,8.08
2019-01-30T23:12:04.324Z,9.18
2019-01-30T23:15:04.751Z,8.05
2019-01-30T23:18:17.956Z,10.05
2019-01-30T23:20:54.900Z,8.85
2019-01-30T23:23:54.246Z,9.90
2019-01-30T23:26:29.204Z,8.75
2019-01-30T23:29:33.467Z,9.78
2019-01-30T23:32:33.268Z,7.78
2019-01-30T23:35:23.742Z,10.08
2019-01-30T23:38:15.905Z,9.85
2019-01-30T23:41:25.516Z,9.90
2019-01-30T23:44:48.478Z,10.20
2019-01-30T23:47:56.038Z,6.53
2019-01-30T23:51:12.195Z,10.38
2019-01-30T23:54:21.762Z,12.50
2019-01-30T23:57:29.347Z,9.53
